Aguanga, CA

5:16 PM PST on November 25, 2014 (GMT -0800)
NE Aguanga | Change Station
CLOSE
Current Station
Personal Weather Station
Location: Aguanga, CA
Elevation: 3724 ft
Nearby Weather Stations
Active Advisory: Fire Weather Warning Active Notice: Public Information Statement

Elev 3724 ft 33.49 °N, 116.78 °W | Updated 31 seconds ago

Clear
Clear
56.7 °F
Feels Like 56.7 °F
N
2.0
Wind Variable Wind from WNW
Gusts 24.0 mph

Today
High -- | Low -- °F
--% Chance of Precip.
Yesterday
High -- | Low -- °F
Precip. -- in
6:27 AM 4:40 PM
Waxing Crescent, 15% visible
Pressure 30.28 in
Visibility 10.0 miles
Clouds Clear
Dew Point 1 °F
Humidity 10%
Rainfall 0.00 in
Snow Depth Not available.
UV 0 out of 12
Pollen 2.70 out of 12
Air Quality Not available.
Flu Activity Not available.
METAR KF70 260055Z AUTO 03003KT 10SM CLR 20/M12 A3028 RMK AO1

More Conditions Fewer Conditions

Pressure 30.28 in
Visibility 10.0 miles
Clouds Clear
Dew Point 1 °F
Humidity 10%
Rainfall 0.00 in
Snow Depth Not available.
UV 0 out of 12
Pollen 2.70 out of 12
Air Quality Not available.
Flu Activity Not available.
METAR KF70 260055Z AUTO 03003KT 10SM CLR 20/M12 A3028 RMK AO1

More Conditions Fewer Conditions

10-Day Weather Forecast

Almanac

Astronomy

Nov. 25, 2014 Rise Set
Actual Time
Civil Twilight
Nautical Twilight
Astronomical Twilight
Moon
Length of Visible Light
Length of Day
Tomorrow will be .
, % of the Moon is Illuminated

Today's Extremes

State Highs State Lows

Community

WunderPhotos

Upload Photos

1,773,636 photos uploaded!

WunderBlogs® & News

Nearby

Air Quality

  Air Quality AQ Index Pollutant
Not available.

Snow Depth

Station Depth Elevation

Earthquake Activity

City Distance Mag. Time & Date
Minimum magnitude displayed is 2.5.

Coastal Water Temperatures

Place Temperature

Nearby Weather Stations